createdAt,value
2023-04-14T00:01:21.456Z,6.60
2023-04-14T00:03:52.292Z,6.60
2023-04-14T00:06:20.892Z,6.60
2023-04-14T00:08:49.209Z,6.60
2023-04-14T00:11:17.751Z,6.60
2023-04-14T00:13:46.925Z,6.60
2023-04-14T00:16:15.595Z,6.60
2023-04-14T00:18:44.109Z,6.60
2023-04-14T00:21:14.010Z,6.50
2023-04-14T00:23:42.270Z,6.60
2023-04-14T00:26:11.782Z,6.50
2023-04-14T00:28:40.134Z,6.50
2023-04-14T00:31:08.461Z,6.50
2023-04-14T00:33:36.759Z,6.50
2023-04-14T00:36:05.912Z,6.50
2023-04-14T00:38:35.580Z,6.50
2023-04-14T00:41:03.957Z,6.50
2023-04-14T00:43:32.220Z,6.50
2023-04-14T00:46:03.762Z,6.40
2023-04-14T00:48:32.506Z,6.40
2023-04-14T00:51:02.417Z,6.50
2023-04-14T00:53:30.769Z,6.40
2023-04-14T00:56:01.190Z,6.40
2023-04-14T00:58:29.701Z,6.40
2023-04-14T01:00:59.441Z,6.40
2023-04-14T01:03:27.976Z,6.40
2023-04-14T01:05:56.795Z,6.40
2023-04-14T01:08:25.331Z,6.40
2023-04-14T01:11:13.162Z,6.30
2023-04-14T01:13:49.749Z,6.20
2023-04-14T01:16:21.774Z,6.20
2023-04-14T01:18:56.847Z,6.10
2023-04-14T01:21:33.300Z,6.00
2023-04-14T01:24:18.569Z,5.90
2023-04-14T01:26:48.979Z,5.90
2023-04-14T01:29:44.556Z,5.80
2023-04-14T01:32:21.038Z,5.80
2023-04-14T01:34:55.544Z,5.80
2023-04-14T01:37:30.517Z,5.60
2023-04-14T01:40:03.211Z,5.60
2023-04-14T01:42:34.835Z,5.60
2023-04-14T01:45:10.048Z,5.50
2023-04-14T01:47:41.966Z,5.50
2023-04-14T01:50:12.654Z,5.50
2023-04-14T01:52:44.229Z,5.40
2023-04-14T01:55:14.229Z,5.40
2023-04-14T01:57:44.274Z,5.30
2023-04-14T02:00:14.579Z,5.20
2023-04-14T02:02:47.632Z,5.10
2023-04-14T02:05:18.495Z,5.00
2023-04-14T02:07:49.035Z,4.90
2023-04-14T02:10:19.132Z,4.90
2023-04-14T02:12:48.459Z,4.80
2023-04-14T02:15:18.902Z,4.80
2023-04-14T02:17:51.846Z,4.70
2023-04-14T02:20:25.002Z,4.70
2023-04-14T02:22:56.816Z,4.70
2023-04-14T02:25:30.924Z,4.70
2023-04-14T02:28:06.774Z,4.60
2023-04-14T02:30:39.613Z,4.60
2023-04-14T02:33:11.784Z,4.60
2023-04-14T02:35:47.125Z,4.50
2023-04-14T02:38:21.219Z,4.50
2023-04-14T02:40:50.693Z,4.50
2023-04-14T02:43:21.996Z,4.40
2023-04-14T02:45:52.774Z,4.40
2023-04-14T02:48:26.064Z,4.40
2023-04-14T02:50:58.225Z,4.30
2023-04-14T02:53:27.889Z,4.40
2023-04-14T02:55:56.433Z,4.30
2023-04-14T02:58:24.942Z,4.30
2023-04-14T03:00:54.164Z,4.30
2023-04-14T03:03:27.643Z,4.20
2023-04-14T03:05:56.903Z,4.20
2023-04-14T03:08:26.622Z,4.10
2023-04-14T03:10:59.527Z,4.10
2023-04-14T03:13:30.160Z,4.10
2023-04-14T03:15:59.755Z,4.00
2023-04-14T03:18:32.159Z,4.00
2023-04-14T03:21:02.800Z,4.00
2023-04-14T03:23:32.517Z,3.90
2023-04-14T03:26:03.487Z,3.90
2023-04-14T03:28:38.767Z,3.90
2023-04-14T03:31:09.267Z,3.80
2023-04-14T03:33:40.777Z,3.80
2023-04-14T03:36:10.152Z,3.70
2023-04-14T03:38:39.160Z,3.70
2023-04-14T03:41:09.720Z,3.60
2023-04-14T03:43:38.781Z,3.60
2023-04-14T03:46:08.015Z,3.60
2023-04-14T03:48:42.982Z,3.50
2023-04-14T03:51:14.246Z,3.50
2023-04-14T03:53:48.185Z,3.50
2023-04-14T03:56:18.717Z,3.50
2023-04-14T03:58:49.487Z,3.40
2023-04-14T04:01:19.182Z,3.40
2023-04-14T04:03:52.466Z,3.30
2023-04-14T04:06:21.334Z,3.40
2023-04-14T04:08:52.841Z,3.30
2023-04-14T04:11:26.121Z,3.30
2023-04-14T04:13:56.197Z,3.30
2023-04-14T04:16:27.746Z,3.20
2023-04-14T04:18:59.007Z,3.20
2023-04-14T04:21:31.996Z,3.20
2023-04-14T04:24:03.286Z,3.20
2023-04-14T04:26:31.630Z,3.20
2023-04-14T04:29:00.738Z,3.20
2023-04-14T04:31:33.280Z,3.20
2023-04-14T04:34:04.642Z,3.20
2023-04-14T04:36:36.767Z,3.20
2023-04-14T04:39:07.728Z,3.20
2023-04-14T04:41:36.219Z,3.20
2023-04-14T04:44:05.768Z,3.20
2023-04-14T04:46:47.876Z,3.20
2023-04-14T04:49:18.101Z,3.20
2023-04-14T04:51:46.596Z,3.10
2023-04-14T04:54:15.684Z,3.10
2023-04-14T04:56:44.265Z,3.10
2023-04-14T04:59:12.638Z,3.10
2023-04-14T05:01:41.875Z,3.10
2023-04-14T05:04:10.774Z,3.10
2023-04-14T05:06:40.975Z,3.10
2023-04-14T05:09:09.241Z,3.10
2023-04-14T05:11:38.040Z,3.10
2023-04-14T05:14:06.455Z,3.00
2023-04-14T05:16:34.776Z,3.10
2023-04-14T05:19:03.631Z,3.10
2023-04-14T05:21:31.959Z,3.10
2023-04-14T05:24:04.771Z,3.10
2023-04-14T05:26:52.064Z,3.10
2023-04-14T05:29:21.727Z,3.10
2023-04-14T05:31:49.927Z,3.10
2023-04-14T05:34:18.499Z,3.10
2023-04-14T05:36:46.787Z,3.20
2023-04-14T05:39:16.732Z,3.10
2023-04-14T05:41:45.070Z,3.10
2023-04-14T05:44:13.599Z,3.10
2023-04-14T05:46:42.584Z,3.10
2023-04-14T05:49:11.457Z,3.10
2023-04-14T05:51:40.919Z,3.10
2023-04-14T05:54:09.462Z,3.20
2023-04-14T05:56:39.444Z,3.10
2023-04-14T05:59:10.664Z,3.10
2023-04-14T06:01:39.002Z,3.20
2023-04-14T06:04:11.026Z,3.20
2023-04-14T06:06:44.334Z,3.10
2023-04-14T06:09:12.536Z,3.20
2023-04-14T06:11:42.383Z,3.20
2023-04-14T06:14:11.306Z,3.20
2023-04-14T06:16:39.767Z,3.20
2023-04-14T06:19:08.445Z,3.20
2023-04-14T06:21:36.749Z,3.20
2023-04-14T06:24:05.346Z,3.20
2023-04-14T06:26:33.658Z,3.20
2023-04-14T06:29:03.686Z,3.20
2023-04-14T06:31:32.223Z,3.30
2023-04-14T06:34:00.546Z,3.30
2023-04-14T06:36:28.822Z,3.30
2023-04-14T06:38:58.909Z,3.30
2023-04-14T06:41:27.515Z,3.30
2023-04-14T06:43:56.017Z,3.30
2023-04-14T06:46:29.437Z,3.30
2023-04-14T06:48:57.680Z,3.40
2023-04-14T06:51:27.328Z,3.40
2023-04-14T06:53:55.688Z,3.40
2023-04-14T06:56:23.977Z,3.40
2023-04-14T06:58:52.397Z,3.40
2023-04-14T07:01:20.846Z,3.50
2023-04-14T07:03:50.802Z,3.50
2023-04-14T07:06:19.444Z,3.50
2023-04-14T07:08:48.332Z,3.50
2023-04-14T07:11:16.647Z,3.50
2023-04-14T07:13:44.976Z,3.60
2023-04-14T07:16:13.813Z,3.60
2023-04-14T07:18:42.276Z,3.60
2023-04-14T07:21:14.963Z,3.60
2023-04-14T07:23:43.313Z,3.60
2023-04-14T07:26:12.009Z,3.60
2023-04-14T07:28:40.556Z,3.60
2023-04-14T07:31:09.677Z,3.60
2023-04-14T07:33:38.127Z,3.70
2023-04-14T07:36:11.859Z,3.70
2023-04-14T07:38:45.588Z,3.70
2023-04-14T07:41:14.069Z,3.70
2023-04-14T07:43:42.549Z,3.70
2023-04-14T07:46:13.743Z,3.80
2023-04-14T07:48:42.833Z,3.80
2023-04-14T07:51:12.934Z,3.80
2023-04-14T07:53:43.751Z,3.80
2023-04-14T07:56:12.663Z,3.80
2023-04-14T07:58:41.460Z,3.90
2023-04-14T08:01:10.038Z,3.80
2023-04-14T08:03:38.620Z,3.90
2023-04-14T08:06:07.797Z,3.90
2023-04-14T08:08:38.349Z,3.90
2023-04-14T08:11:06.733Z,3.90
2023-04-14T08:13:37.010Z,3.90
2023-04-14T08:16:06.072Z,3.90
2023-04-14T08:18:34.708Z,3.90
2023-04-14T08:21:03.287Z,4.00
2023-04-14T08:23:33.240Z,3.90
2023-04-14T08:26:04.370Z,3.90
2023-04-14T08:28:32.961Z,3.90
2023-04-14T08:31:02.907Z,3.90
2023-04-14T08:33:34.275Z,3.90
2023-04-14T08:36:05.698Z,3.90
2023-04-14T08:38:34.138Z,3.90
2023-04-14T08:41:10.025Z,3.90
2023-04-14T08:43:38.406Z,3.90
2023-04-14T08:46:11.086Z,3.80
2023-04-14T08:48:40.777Z,3.80
2023-04-14T08:51:15.100Z,3.80
2023-04-14T08:53:48.761Z,3.80
2023-04-14T08:56:22.208Z,3.80
2023-04-14T08:58:50.548Z,3.80
2023-04-14T09:01:22.056Z,3.80
2023-04-14T09:03:51.400Z,3.80
2023-04-14T09:06:20.516Z,3.80
2023-04-14T09:08:48.902Z,3.80
2023-04-14T09:11:20.537Z,3.70
2023-04-14T09:13:51.177Z,3.70
2023-04-14T09:16:21.062Z,3.70
2023-04-14T09:18:49.965Z,3.70
2023-04-14T09:21:28.931Z,3.70
2023-04-14T09:24:10.442Z,3.60
2023-04-14T09:26:47.403Z,3.60
2023-04-14T09:29:15.784Z,3.50
2023-04-14T09:31:44.747Z,3.40
2023-04-14T09:34:18.829Z,3.40
2023-04-14T09:37:02.716Z,3.40
2023-04-14T09:39:31.449Z,3.20
2023-04-14T09:42:02.333Z,3.20
2023-04-14T09:44:31.758Z,3.20
2023-04-14T09:47:02.197Z,3.20
2023-04-14T09:49:32.004Z,3.10
2023-04-14T09:52:08.317Z,3.20
2023-04-14T09:54:38.397Z,3.10
2023-04-14T09:57:08.615Z,3.10
2023-04-14T09:59:38.844Z,3.20
2023-04-14T10:02:12.284Z,3.20
2023-04-14T10:04:40.998Z,3.10
2023-04-14T10:07:09.333Z,3.20
2023-04-14T10:09:39.222Z,3.10
2023-04-14T10:12:13.995Z,3.10
2023-04-14T10:14:44.183Z,3.10
2023-04-14T10:17:13.700Z,3.10
2023-04-14T10:19:43.961Z,3.20
2023-04-14T10:22:12.697Z,3.20
2023-04-14T10:24:46.384Z,3.20
2023-04-14T10:27:17.920Z,3.10
2023-04-14T10:29:47.365Z,3.10
2023-04-14T10:32:17.803Z,3.20
2023-04-14T10:34:59.308Z,3.10
2023-04-14T10:37:27.700Z,3.10
2023-04-14T10:39:57.297Z,3.10
2023-04-14T10:42:28.912Z,3.20
2023-04-14T10:45:06.070Z,3.10
2023-04-14T10:47:42.619Z,3.10
2023-04-14T10:50:15.730Z,3.20
2023-04-14T10:52:56.159Z,3.20
2023-04-14T10:55:26.031Z,3.20
2023-04-14T10:58:05.593Z,3.20
2023-04-14T11:00:39.570Z,3.20
2023-04-14T11:03:13.383Z,3.10
2023-04-14T11:05:44.879Z,3.20
2023-04-14T11:08:19.393Z,3.20
2023-04-14T11:10:52.433Z,3.20
2023-04-14T11:13:22.322Z,3.10
2023-04-14T11:15:54.531Z,3.20
2023-04-14T11:18:34.851Z,3.20
2023-04-14T11:21:06.022Z,3.20
2023-04-14T11:23:35.784Z,3.10
2023-04-14T11:26:07.626Z,3.20
2023-04-14T11:28:39.759Z,3.20
2023-04-14T11:31:12.150Z,3.20
2023-04-14T11:33:41.809Z,3.20
2023-04-14T11:36:12.787Z,3.20
2023-04-14T11:38:41.600Z,3.20
2023-04-14T11:41:10.543Z,3.20
2023-04-14T11:43:46.743Z,3.20
2023-04-14T11:46:16.442Z,3.20
2023-04-14T11:48:45.667Z,3.20
2023-04-14T11:51:14.324Z,3.20
2023-04-14T11:53:48.711Z,3.20
2023-04-14T11:56:17.624Z,3.20
2023-04-14T11:58:47.923Z,3.20
2023-04-14T12:01:16.283Z,3.20
2023-04-14T12:03:45.317Z,3.20
2023-04-14T12:06:13.915Z,3.30
2023-04-14T12:08:42.186Z,3.30
2023-04-14T12:11:14.887Z,3.30
2023-04-14T12:13:44.079Z,3.30
2023-04-14T12:16:16.350Z,3.40
2023-04-14T12:18:45.557Z,3.30
2023-04-14T12:21:19.690Z,3.40
2023-04-14T12:23:51.710Z,3.40
2023-04-14T12:26:21.450Z,3.40
2023-04-14T12:28:57.088Z,3.40
2023-04-14T12:31:31.292Z,3.40
2023-04-14T12:34:03.701Z,3.40
2023-04-14T12:36:48.579Z,3.40
2023-04-14T12:39:18.648Z,3.40
2023-04-14T12:41:47.388Z,3.40
2023-04-14T12:44:17.413Z,3.40
2023-04-14T12:46:53.133Z,3.40
2023-04-14T12:49:32.144Z,3.40
2023-04-14T12:52:00.561Z,3.40
2023-04-14T12:54:28.824Z,3.40
2023-04-14T12:56:57.221Z,3.40
2023-04-14T12:59:25.442Z,3.40
2023-04-14T13:01:55.586Z,3.40
2023-04-14T13:04:24.207Z,3.40
2023-04-14T13:06:53.050Z,3.50
2023-04-14T13:09:21.513Z,3.50
2023-04-14T13:11:52.883Z,3.60
2023-04-14T13:14:21.291Z,3.60
2023-04-14T13:16:49.573Z,3.60
2023-04-14T13:19:19.586Z,3.70
2023-04-14T13:21:47.957Z,3.70
2023-04-14T13:24:18.065Z,3.80
2023-04-14T13:26:47.198Z,3.80
2023-04-14T13:29:15.598Z,3.80
2023-04-14T13:31:43.968Z,3.90
2023-04-14T13:34:12.402Z,3.90
2023-04-14T13:36:48.589Z,3.90
2023-04-14T13:39:16.824Z,3.90
2023-04-14T13:41:45.349Z,3.90
2023-04-14T13:44:14.090Z,3.90
2023-04-14T13:46:44.750Z,4.00
2023-04-14T13:49:13.719Z,4.00
2023-04-14T13:51:43.565Z,4.00
2023-04-14T13:54:13.485Z,4.00
2023-04-14T13:56:41.892Z,4.10
2023-04-14T13:59:10.247Z,4.10
2023-04-14T14:01:38.797Z,4.10
2023-04-14T14:04:07.394Z,4.20
2023-04-14T14:06:36.344Z,4.20
2023-04-14T14:09:06.770Z,4.20
2023-04-14T14:11:37.027Z,4.20
2023-04-14T14:14:05.372Z,4.20
2023-04-14T14:16:37.192Z,4.20
2023-04-14T14:19:08.404Z,4.20
2023-04-14T14:21:36.957Z,4.30
2023-04-14T14:24:05.447Z,4.30
2023-04-14T14:26:34.011Z,4.30
2023-04-14T14:29:03.882Z,4.30
2023-04-14T14:31:32.110Z,4.30
2023-04-14T14:34:00.861Z,4.30
2023-04-14T14:36:29.452Z,4.30
2023-04-14T14:38:57.727Z,4.20
2023-04-14T14:41:26.360Z,4.30
2023-04-14T14:43:55.004Z,4.30
2023-04-14T14:46:25.204Z,4.20
2023-04-14T14:48:53.718Z,4.30
2023-04-14T14:51:22.120Z,4.30
2023-04-14T14:53:50.679Z,4.30
2023-04-14T14:56:19.730Z,4.30
2023-04-14T14:58:48.211Z,4.20
2023-04-14T15:01:16.900Z,4.30
2023-04-14T15:03:46.696Z,4.20
2023-04-14T15:06:15.125Z,4.20
2023-04-14T15:08:43.895Z,4.20
2023-04-14T15:11:12.214Z,4.30
2023-04-14T15:13:40.486Z,4.30
2023-04-14T15:16:08.976Z,4.30
2023-04-14T15:18:39.544Z,4.30
2023-04-14T15:21:10.311Z,4.30
2023-04-14T15:23:41.404Z,4.30
2023-04-14T15:26:10.148Z,4.30
2023-04-14T15:28:39.777Z,4.20
2023-04-14T15:31:09.202Z,4.30
2023-04-14T15:33:37.558Z,4.30
2023-04-14T15:36:09.796Z,4.30
2023-04-14T15:38:39.080Z,4.30
2023-04-14T15:41:07.451Z,4.40
2023-04-14T15:43:35.837Z,4.40
2023-04-14T15:46:04.439Z,4.40
2023-04-14T15:48:32.792Z,4.40
2023-04-14T15:51:01.175Z,4.40
2023-04-14T15:53:31.192Z,4.40
2023-04-14T15:56:00.311Z,4.40
2023-04-14T15:58:29.672Z,4.40
2023-04-14T16:00:58.813Z,4.40
2023-04-14T16:03:27.435Z,4.40
2023-04-14T16:06:02.895Z,4.40
2023-04-14T16:08:32.725Z,4.50
2023-04-14T16:11:01.306Z,4.50
2023-04-14T16:13:30.120Z,4.50
2023-04-14T16:15:58.575Z,4.50
2023-04-14T16:18:27.159Z,4.50
2023-04-14T16:20:55.528Z,4.50
2023-04-14T16:23:23.917Z,4.50
2023-04-14T16:25:53.727Z,4.50
2023-04-14T16:28:23.115Z,4.50
2023-04-14T16:30:51.796Z,4.50
2023-04-14T16:33:20.327Z,4.50
2023-04-14T16:35:48.694Z,4.50
2023-04-14T16:38:17.327Z,4.50
2023-04-14T16:40:45.583Z,4.50
2023-04-14T16:43:15.743Z,4.50
2023-04-14T16:45:44.055Z,4.60
2023-04-14T16:48:12.448Z,4.60
2023-04-14T16:50:42.937Z,4.60
2023-04-14T16:53:11.676Z,4.60
2023-04-14T16:55:40.033Z,4.60
2023-04-14T16:58:09.863Z,4.60
2023-04-14T17:00:39.791Z,4.60
2023-04-14T17:03:08.926Z,4.60
2023-04-14T17:05:37.556Z,4.60
2023-04-14T17:08:06.259Z,4.60
2023-04-14T17:10:34.531Z,4.60
2023-04-14T17:13:02.867Z,4.60
2023-04-14T17:15:31.492Z,4.60
2023-04-14T17:18:01.336Z,4.60
2023-04-14T17:20:30.766Z,4.70
2023-04-14T17:23:00.446Z,4.60
2023-04-14T17:25:29.523Z,4.70
2023-04-14T17:27:58.620Z,4.60
2023-04-14T17:30:27.567Z,4.70
2023-04-14T17:32:56.769Z,4.70
2023-04-14T17:35:26.623Z,4.70
2023-04-14T17:37:54.976Z,4.80
2023-04-14T17:40:23.367Z,4.80
2023-04-14T17:42:54.767Z,4.80
2023-04-14T17:45:24.205Z,4.80
2023-04-14T17:47:54.813Z,4.80
2023-04-14T17:50:23.922Z,4.90
2023-04-14T17:52:54.929Z,4.90
2023-04-14T17:55:23.251Z,4.80
2023-04-14T17:57:54.086Z,4.80
2023-04-14T18:00:22.852Z,4.90
2023-04-14T18:02:51.432Z,4.80
2023-04-14T18:05:20.123Z,4.80
2023-04-14T18:07:49.506Z,4.90
2023-04-14T18:10:19.699Z,4.80
2023-04-14T18:12:49.440Z,4.90
2023-04-14T18:15:17.996Z,4.90
2023-04-14T18:17:46.919Z,4.90
2023-04-14T18:20:16.117Z,4.90
2023-04-14T18:22:44.614Z,5.00
2023-04-14T18:25:12.959Z,4.90
2023-04-14T18:30:14.537Z,4.90
2023-04-14T18:32:43.505Z,5.00
2023-04-14T18:35:11.947Z,4.90
2023-04-14T18:37:40.375Z,4.90
2023-04-14T18:40:10.637Z,5.00
2023-04-14T18:42:39.302Z,5.00
2023-04-14T18:45:10.402Z,5.00
2023-04-14T18:47:39.267Z,5.00
2023-04-14T18:50:09.390Z,5.00
2023-04-14T18:52:37.752Z,5.00
2023-04-14T18:55:07.295Z,5.00
2023-04-14T18:57:35.630Z,5.00
2023-04-14T19:00:04.871Z,5.00
2023-04-14T19:02:35.603Z,5.00
2023-04-14T19:05:04.265Z,4.90
2023-04-14T19:07:33.039Z,4.90
2023-04-14T19:10:02.555Z,4.90
2023-04-14T19:12:32.199Z,5.00
2023-04-14T19:15:00.539Z,5.00
2023-04-14T19:17:29.093Z,5.00
2023-04-14T19:19:59.075Z,4.90
2023-04-14T19:22:28.465Z,4.90
2023-04-14T19:24:57.605Z,4.90
2023-04-14T19:27:26.505Z,4.90
2023-04-14T19:29:55.191Z,5.00
2023-04-14T19:32:23.602Z,4.90
2023-04-14T19:34:52.107Z,4.90
2023-04-14T19:37:21.990Z,5.00
2023-04-14T19:39:50.734Z,5.00
2023-04-14T19:42:18.990Z,4.90
2023-04-14T19:44:47.401Z,4.90
2023-04-14T19:47:16.079Z,4.90
2023-04-14T19:49:44.630Z,4.90
2023-04-14T19:52:13.385Z,5.00
2023-04-14T19:54:43.362Z,5.00
2023-04-14T19:57:12.336Z,5.00
2023-04-14T19:59:40.734Z,5.00
2023-04-14T20:02:10.820Z,5.00
2023-04-14T20:04:39.588Z,5.00
2023-04-14T20:07:08.084Z,5.00
2023-04-14T20:09:36.540Z,4.90
2023-04-14T20:12:06.465Z,5.00
2023-04-14T20:14:34.950Z,5.00
2023-04-14T20:17:03.511Z,5.00
2023-04-14T20:19:31.794Z,5.00
2023-04-14T20:22:00.244Z,5.00
2023-04-14T20:24:28.619Z,5.00
2023-04-14T20:26:57.107Z,5.00
2023-04-14T20:29:27.042Z,5.00
2023-04-14T20:31:55.507Z,5.00
2023-04-14T20:34:24.057Z,5.10
2023-04-14T20:36:53.726Z,5.10
2023-04-14T20:39:22.234Z,5.00
2023-04-14T20:41:51.809Z,5.00
2023-04-14T20:44:20.186Z,5.10
2023-04-14T20:46:50.426Z,5.10
2023-04-14T20:49:18.869Z,5.10
2023-04-14T20:51:48.960Z,5.00
2023-04-14T20:54:17.809Z,5.00
2023-04-14T20:56:46.760Z,5.00
2023-04-14T20:59:15.351Z,5.00
2023-04-14T21:01:44.079Z,5.00
2023-04-14T21:04:14.192Z,5.10
2023-04-14T21:06:42.788Z,5.10
2023-04-14T21:09:11.250Z,5.10
2023-04-14T21:11:39.949Z,5.10
2023-04-14T21:15:40.857Z,5.10
2023-04-14T21:16:58.704Z,5.10
2023-04-14T21:19:29.570Z,5.00
2023-04-14T21:21:58.289Z,5.10
2023-04-14T21:24:28.774Z,5.00
2023-04-14T21:26:57.646Z,5.00
2023-04-14T21:29:26.144Z,5.00
2023-04-14T21:31:55.076Z,5.00
2023-04-14T21:34:23.727Z,4.90
2023-04-14T21:36:53.934Z,5.00
2023-04-14T21:39:23.105Z,4.90
2023-04-14T21:41:52.622Z,4.90
2023-04-14T21:44:22.033Z,4.90
2023-04-14T21:46:50.445Z,4.90
2023-04-14T21:49:18.808Z,4.90
2023-04-14T21:51:47.659Z,4.90
2023-04-14T21:54:17.730Z,4.90
2023-04-14T21:56:46.448Z,4.80
2023-04-14T21:59:15.007Z,4.80
2023-04-14T22:01:44.178Z,4.80
2023-04-14T22:04:22.199Z,4.90
2023-04-14T22:06:57.559Z,4.80
2023-04-14T22:09:27.536Z,4.80
2023-04-14T22:11:56.078Z,4.80
2023-04-14T22:14:24.583Z,4.90
2023-04-14T22:16:53.084Z,4.80
2023-04-14T22:19:21.422Z,4.80
2023-04-14T22:21:49.914Z,4.90
2023-04-14T22:24:18.685Z,4.80
2023-04-14T22:26:48.511Z,4.80
2023-04-14T22:29:17.065Z,4.90
2023-04-14T22:31:45.361Z,4.80
2023-04-14T22:34:14.178Z,4.90
2023-04-14T22:36:42.791Z,4.90
2023-04-14T22:39:11.310Z,4.90
2023-04-14T22:41:39.859Z,4.90
2023-04-14T22:44:09.601Z,4.90
2023-04-14T22:46:38.075Z,4.90
2023-04-14T22:49:06.697Z,4.90
2023-04-14T22:51:35.112Z,4.90
2023-04-14T22:54:03.770Z,4.90
2023-04-14T22:56:32.260Z,4.90
2023-04-14T22:59:01.386Z,4.80
2023-04-14T23:01:31.624Z,4.80
2023-04-14T23:04:00.522Z,4.70
2023-04-14T23:06:29.324Z,4.60
2023-04-14T23:08:57.812Z,4.50
2023-04-14T23:11:26.139Z,4.50
2023-04-14T23:13:54.508Z,4.40
2023-04-14T23:16:23.083Z,4.40
2023-04-14T23:18:53.179Z,4.30
2023-04-14T23:21:22.495Z,4.20
2023-04-14T23:23:51.382Z,4.10
2023-04-14T23:26:20.386Z,4.10
2023-04-14T23:28:48.839Z,4.10
2023-04-14T23:31:17.660Z,4.00
2023-04-14T23:33:48.708Z,3.90
2023-04-14T23:36:18.725Z,4.00
2023-04-14T23:38:47.135Z,3.90
2023-04-14T23:41:15.961Z,3.90
2023-04-14T23:43:44.478Z,3.90
2023-04-14T23:46:13.177Z,3.90
2023-04-14T23:48:41.766Z,3.80
2023-04-14T23:51:18.595Z,3.80
2023-04-14T23:53:49.952Z,3.80
2023-04-14T23:56:18.191Z,3.80
2023-04-14T23:58:47.198Z,3.90
